TimeIST,TemperatureF,Dew PointF,Humidity,Sea Level PressureIn,VisibilityMPH,Wind Direction,Wind SpeedMPH,Gust SpeedMPH,PrecipitationIn,Events,Conditions,WindDirDegrees,DateUTC
12:10 AM,78.8,73.4,83,29.77,2.5,NW,3.5,-,N/A,,Haze,310,2013-03-22 18:40:00
12:40 AM,78.8,73.4,83,29.77,2.5,NW,3.5,-,N/A,,Haze,310,2013-03-22 19:10:00
1:10 AM,78.8,73.4,83,29.77,2.5,Calm,Calm,-,N/A,,Haze,0,2013-03-22 19:40:00
1:40 AM,78.8,73.4,83,29.77,2.5,West,5.8,-,N/A,,Haze,260,2013-03-22 20:10:00
2:10 AM,78.8,71.6,78,29.77,2.5,Calm,Calm,-,N/A,,Haze,0,2013-03-22 20:40:00
2:30 AM,76,72,86,29.76,1,Calm,Calm,,,,Haze,,2013-03-22 21:00:00
2:40 AM,78.8,73.4,83,29.74,2.5,WNW,3.5,-,N/A,,Haze,300,2013-03-22 21:10:00
3:10 AM,78.8,73.4,83,29.74,2.5,Calm,Calm,-,N/A,,Haze,0,2013-03-22 21:40:00
3:40 AM,78.8,73.4,83,29.74,2.5,NE,3.5,-,N/A,,Haze,50,2013-03-22 22:10:00
4:10 AM,77.0,73.4,89,29.74,2.5,Calm,Calm,-,N/A,,Haze,0,2013-03-22 22:40:00
4:40 AM,77.0,71.6,83,29.74,2.5,Calm,Calm,-,N/A,,Scattered Clouds,0,2013-03-22 23:10:00
5:10 AM,77.0,73.4,89,29.74,2.5,Calm,Calm,-,N/A,,Scattered Clouds,0,2013-03-22 23:40:00
5:30 AM,73,70,87,29.76,0,Calm,Calm,,,,Haze,,2013-03-23 00:00:00
5:40 AM,77.0,73.4,89,29.77,2.2,ENE,3.5,-,N/A,,Partly Cloudy,70,2013-03-23 00:10:00
6:10 AM,77.0,71.6,83,29.77,2.2,East,3.5,-,N/A,,Scattered Clouds,80,2013-03-23 00:40:00
6:40 AM,77.0,71.6,83,29.77,-9999.0,ESE,5.8,-,N/A,,Scattered Clouds,110,2013-03-23 01:10:00
7:40 AM,77.0,73.4,89,29.80,1.6,ESE,4.6,-,N/A,,Partly Cloudy,110,2013-03-23 02:10:00
8:10 AM,78.8,73.4,83,29.83,1.6,East,3.5,-,N/A,,Partly Cloudy,100,2013-03-23 02:40:00
8:30 AM,78,72,77,29.83,1,Calm,Calm,,,,Haze,,2013-03-23 03:00:00
8:40 AM,78.8,71.6,78,29.83,1.6,Calm,Calm,-,N/A,,Haze,0,2013-03-23 03:10:00
9:10 AM,80.6,69.8,70,29.83,1.6,NNW,3.5,-,N/A,,Haze,330,2013-03-23 03:40:00
10:10 AM,84.2,64.4,51,29.86,1.9,NNW,4.6,-,N/A,,Smoke,330,2013-03-23 04:40:00
10:40 AM,84.2,68.0,58,29.83,1.9,West,9.2,-,N/A,,Smoke,270,2013-03-23 05:10:00
11:10 AM,86.0,69.8,58,29.83,2.2,West,10.4,-,N/A,,Smoke,270,2013-03-23 05:40:00
11:30 AM,87,71,49,29.83,1,West,9.2,,,,Smoke,270,2013-03-23 06:00:00
11:40 AM,84.2,69.8,62,29.83,2.5,West,13.8,-,N/A,,Smoke,260,2013-03-23 06:10:00
12:10 PM,84.2,71.6,66,29.80,2.5,West,15.0,-,N/A,,Smoke,270,2013-03-23 06:40:00
12:40 PM,84.2,71.6,66,29.80,2.5,West,11.5,-,N/A,,Smoke,280,2013-03-23 07:10:00
1:40 PM,86.0,69.8,58,29.77,3.1,West,8.1,19.6,N/A,,Smoke,260,2013-03-23 08:10:00
2:10 PM,86.0,69.8,58,29.74,3.7,West,9.2,20.7,N/A,,Unknown,280,2013-03-23 08:40:00
2:30 PM,88,71,47,29.75,2,NW,6.9,,,,Scattered Clouds,320,2013-03-23 09:00:00
2:40 PM,86.0,69.8,58,29.74,3.7,West,10.4,21.9,N/A,,Unknown,280,2013-03-23 09:10:00
3:10 PM,86.0,68.0,55,29.74,3.7,West,9.2,20.7,N/A,,Unknown,280,2013-03-23 09:40:00
3:40 PM,86.0,69.8,58,29.71,3.7,West,9.2,20.7,N/A,,Unknown,280,2013-03-23 10:10:00
4:10 PM,86.0,68.0,55,29.71,3.7,WNW,8.1,19.6,N/A,,Unknown,290,2013-03-23 10:40:00
4:40 PM,86.0,66.2,51,29.74,3.7,WNW,11.5,23.0,N/A,,Unknown,290,2013-03-23 11:10:00
5:10 PM,86.0,64.4,48,29.74,3.7,WNW,12.7,-,N/A,,Unknown,290,2013-03-23 11:40:00
5:30 PM,86,65,39,29.75,2,NW,9.2,,,,Partly Cloudy,320,2013-03-23 12:00:00
6:10 PM,84.2,64.4,51,29.77,3.1,WNW,8.1,19.6,N/A,,Smoke,290,2013-03-23 12:40:00
6:40 PM,82.4,64.4,54,29.77,2.8,WNW,13.8,-,N/A,,Smoke,290,2013-03-23 13:10:00
7:10 PM,82.4,64.4,54,29.80,2.5,WNW,9.2,-,N/A,,Smoke,290,2013-03-23 13:40:00
7:40 PM,82.4,64.4,54,29.80,2.5,WNW,10.4,-,N/A,,Smoke,290,2013-03-23 14:10:00
8:10 PM,80.6,64.4,58,29.83,2.5,WNW,10.4,-,N/A,,Smoke,290,2013-03-23 14:40:00
8:30 PM,81,65,50,29.82,1,NW,4.6,,,,Smoke,320,2013-03-23 15:00:00
8:40 PM,80.6,66.2,61,29.83,2.5,WNW,6.9,-,N/A,,Smoke,300,2013-03-23 15:10:00
9:10 PM,80.6,66.2,61,29.83,2.5,WNW,6.9,-,N/A,,Smoke,290,2013-03-23 15:40:00
9:40 PM,80.6,66.2,61,29.86,2.5,WNW,5.8,-,N/A,,Smoke,300,2013-03-23 16:10:00
10:10 PM,80.6,66.2,61,29.86,2.5,WNW,4.6,-,N/A,,Smoke,290,2013-03-23 16:40:00
10:40 PM,80.6,66.2,61,29.86,2.5,NW,4.6,-,N/A,,Smoke,320,2013-03-23 17:10:00
11:10 PM,80.6,66.2,61,29.86,2.5,WNW,3.5,-,N/A,,Smoke,290,2013-03-23 17:40:00
11:30 PM,76,67,67,29.87,1,Calm,Calm,,,,Haze,,2013-03-23 18:00:00
11:40 PM,80.6,66.2,61,29.86,2.5,WNW,3.5,-,N/A,,Smoke,290,2013-03-23 18:10:00